createdAt,value
2022-09-09T00:01:07.332Z,80.10
2022-09-09T00:03:45.891Z,79.86
2022-09-09T00:06:31.817Z,79.06
2022-09-09T00:09:21.701Z,79.22
2022-09-09T00:12:19.776Z,79.95
2022-09-09T00:15:22.961Z,79.54
2022-09-09T00:18:25.441Z,80.41
2022-09-09T00:21:06.700Z,81.21
2022-09-09T00:23:40.547Z,82.17
2022-09-09T00:26:20.128Z,80.85
2022-09-09T00:29:06.653Z,83.23
2022-09-09T00:31:35.567Z,82.75
2022-09-09T00:34:14.202Z,83.08
2022-09-09T00:36:43.019Z,82.84
2022-09-09T00:39:32.859Z,81.69
2022-09-09T00:42:17.220Z,81.99
2022-09-09T00:45:07.227Z,82.14
2022-09-09T00:47:46.647Z,80.50
2022-09-09T00:51:06.518Z,79.84
2022-09-09T00:54:32.680Z,80.20
2022-09-09T00:57:27.854Z,79.37
2022-09-09T01:00:22.853Z,79.95
2022-09-09T01:03:45.608Z,78.80
2022-09-09T01:06:31.302Z,79.26
2022-09-09T01:09:30.123Z,78.50
2022-09-09T01:12:36.708Z,79.13
2022-09-09T01:19:39.770Z,78.74
2022-09-09T01:22:27.472Z,78.98
2022-09-09T01:26:06.251Z,78.99
2022-09-09T01:28:37.145Z,78.75
2022-09-09T01:31:22.482Z,78.76
2022-09-09T01:34:00.212Z,78.42
2022-09-09T01:36:43.601Z,79.33
2022-09-09T01:39:13.709Z,79.29
2022-09-09T01:42:00.371Z,78.68
2022-09-09T01:44:35.687Z,79.37
2022-09-09T01:47:09.022Z,78.87
2022-09-09T01:50:05.585Z,78.18
2022-09-09T01:52:37.164Z,77.01
2022-09-09T01:55:44.662Z,78.05
2022-09-09T01:58:39.786Z,77.71
2022-09-09T02:01:25.282Z,77.12
2022-09-09T02:03:56.846Z,77.37
2022-09-09T02:06:36.813Z,78.15
2022-09-09T02:09:25.983Z,79.25
2022-09-09T02:12:07.942Z,78.42
2022-09-09T02:14:53.749Z,78.80
2022-09-09T02:17:32.166Z,80.17
2022-09-09T02:20:35.876Z,79.78
2022-09-09T02:23:09.810Z,79.17
2022-09-09T02:25:40.077Z,79.84
2022-09-09T02:28:21.131Z,81.54
2022-09-09T02:30:52.103Z,82.42
2022-09-09T02:33:20.457Z,82.17
2022-09-09T02:35:53.333Z,82.90
2022-09-09T02:38:29.479Z,85.97
2022-09-09T02:41:05.804Z,87.03
2022-09-09T02:43:33.642Z,86.35
2022-09-09T02:46:22.456Z,85.97
2022-09-09T02:49:01.491Z,85.60
2022-09-09T02:51:47.241Z,85.36
2022-09-09T02:54:27.594Z,85.35
2022-09-09T02:56:55.787Z,86.50
2022-09-09T02:59:30.008Z,87.00
2022-09-09T03:01:58.287Z,86.88
2022-09-09T03:04:25.358Z,86.98
2022-09-09T03:06:52.956Z,87.09
2022-09-09T03:09:21.876Z,86.56
2022-09-09T03:11:50.743Z,86.92
2022-09-09T03:14:19.094Z,87.63
2022-09-09T03:16:46.252Z,88.58
2022-09-09T03:19:14.765Z,88.51
2022-09-09T03:21:42.077Z,87.28
2022-09-09T03:24:09.264Z,87.31
2022-09-09T03:26:36.421Z,86.70
2022-09-09T03:29:03.818Z,88.07
2022-09-09T03:31:31.332Z,87.89
2022-09-09T03:33:59.627Z,87.24
2022-09-09T03:36:31.328Z,87.45
2022-09-09T03:38:59.228Z,87.15
2022-09-09T03:41:28.910Z,87.98
2022-09-09T03:43:56.334Z,86.38
2022-09-09T03:46:27.243Z,87.82
2022-09-09T03:48:55.900Z,89.21
2022-09-09T03:51:22.999Z,89.96
2022-09-09T03:53:52.521Z,89.71
2022-09-09T03:56:19.783Z,89.88
2022-09-09T03:58:47.470Z,88.52
2022-09-09T04:01:16.021Z,89.74
2022-09-09T04:03:45.148Z,90.67
2022-09-09T04:06:14.610Z,91.10
2022-09-09T04:08:47.378Z,90.62
2022-09-09T04:11:17.330Z,91.93
2022-09-09T04:13:45.535Z,92.18
2022-09-09T04:16:14.650Z,92.57
2022-09-09T04:18:43.668Z,93.20
2022-09-09T04:21:11.811Z,92.42
2022-09-09T04:23:40.040Z,92.55
2022-09-09T04:26:07.483Z,92.46
2022-09-09T04:28:38.383Z,91.70
2022-09-09T04:31:21.360Z,90.90
2022-09-09T04:33:50.654Z,90.44
2022-09-09T04:36:18.608Z,89.76
2022-09-09T04:38:45.795Z,89.15
2022-09-09T04:41:13.461Z,89.08
2022-09-09T04:43:44.954Z,88.98
2022-09-09T04:46:13.805Z,88.27
2022-09-09T04:48:42.845Z,88.15
2022-09-09T04:51:14.646Z,88.37
2022-09-09T04:53:43.680Z,88.52
2022-09-09T04:56:16.250Z,88.23
2022-09-09T04:58:50.292Z,89.02
2022-09-09T05:01:21.156Z,89.48
2022-09-09T05:03:50.133Z,89.45
2022-09-09T05:06:22.917Z,89.92
2022-09-09T05:08:54.049Z,89.63
2022-09-09T05:11:28.847Z,89.41
2022-09-09T05:14:02.028Z,89.76
2022-09-09T05:16:30.823Z,89.89
2022-09-09T05:18:58.460Z,90.00
2022-09-09T05:21:26.567Z,90.35
2022-09-09T05:23:53.609Z,90.29
2022-09-09T05:26:23.341Z,90.02
2022-09-09T05:28:53.172Z,89.85
2022-09-09T05:31:22.553Z,90.10
2022-09-09T05:33:52.505Z,89.22
2022-09-09T05:36:22.579Z,87.76
2022-09-09T05:38:53.459Z,86.91
2022-09-09T05:41:21.438Z,84.81
2022-09-09T05:43:48.973Z,83.02
2022-09-09T05:46:22.960Z,79.71
2022-09-09T05:48:53.554Z,77.57
2022-09-09T05:51:28.737Z,79.61
2022-09-09T05:53:58.393Z,76.92
2022-09-09T05:56:29.417Z,78.40
2022-09-09T05:58:57.701Z,81.55
2022-09-09T06:01:29.292Z,82.75
2022-09-09T06:03:58.736Z,84.53
2022-09-09T06:06:28.605Z,83.24
2022-09-09T06:08:59.366Z,84.05
2022-09-09T06:11:32.369Z,83.72
2022-09-09T06:14:06.023Z,83.26
2022-09-09T06:16:36.362Z,82.99
2022-09-09T06:19:17.849Z,83.05
2022-09-09T06:21:44.939Z,82.15
2022-09-09T06:24:12.460Z,82.81
2022-09-09T06:26:41.428Z,83.25
2022-09-09T06:29:19.508Z,83.22
2022-09-09T06:31:48.245Z,81.85
2022-09-09T06:34:23.074Z,81.45
2022-09-09T06:36:53.977Z,82.08
2022-09-09T06:39:21.520Z,81.73
2022-09-09T06:41:48.446Z,82.96
2022-09-09T06:44:35.466Z,80.92
2022-09-09T06:47:09.592Z,81.58
2022-09-09T06:49:36.896Z,80.93
2022-09-09T06:52:11.701Z,81.06
2022-09-09T06:54:45.671Z,81.35
2022-09-09T06:57:35.982Z,80.66
2022-09-09T07:00:05.861Z,80.03
2022-09-09T07:02:34.140Z,80.70
2022-09-09T07:05:01.235Z,79.34
2022-09-09T07:07:29.187Z,79.17
2022-09-09T07:09:56.723Z,79.59
2022-09-09T07:12:24.843Z,79.87
2022-09-09T07:14:57.704Z,79.15
2022-09-09T07:17:24.715Z,77.71
2022-09-09T07:19:53.004Z,78.18
2022-09-09T07:22:20.403Z,77.92
2022-09-09T07:24:53.171Z,76.99
2022-09-09T07:27:20.371Z,75.29
2022-09-09T07:29:50.685Z,74.26
2022-09-09T07:32:18.884Z,73.89
2022-09-09T07:34:45.996Z,74.25
2022-09-09T07:37:14.449Z,73.57
2022-09-09T07:39:45.891Z,73.54
2022-09-09T07:42:13.561Z,73.48
2022-09-09T07:44:41.229Z,72.74
2022-09-09T07:47:13.972Z,71.58
2022-09-09T07:49:45.458Z,71.41
2022-09-09T07:52:15.852Z,71.44
2022-09-09T07:54:48.225Z,70.14
2022-09-09T07:57:15.626Z,65.71
2022-09-09T07:59:43.007Z,62.84
2022-09-09T08:02:10.496Z,62.51
2022-09-09T08:04:41.447Z,60.25
2022-09-09T08:07:08.561Z,58.56
2022-09-09T08:09:44.487Z,55.68
2022-09-09T08:12:18.410Z,56.33
2022-09-09T08:14:46.481Z,52.77
2022-09-09T08:17:14.956Z,49.86
2022-09-09T08:19:43.442Z,46.60
2022-09-09T08:22:15.600Z,44.42
2022-09-09T08:24:44.093Z,44.31
2022-09-09T08:27:11.038Z,49.03
2022-09-09T08:29:38.969Z,49.98
2022-09-09T08:32:06.971Z,46.64
2022-09-09T08:34:46.442Z,44.31
2022-09-09T08:37:19.714Z,43.36
2022-09-09T08:39:48.093Z,41.76
2022-09-09T08:42:39.075Z,39.03
2022-09-09T08:45:32.491Z,36.88
2022-09-09T08:48:26.419Z,40.48
2022-09-09T08:50:54.705Z,40.70
2022-09-09T08:53:34.337Z,48.11
2022-09-09T08:56:11.607Z,50.68
2022-09-09T08:58:52.125Z,48.49
2022-09-09T09:01:46.174Z,51.70
2022-09-09T09:08:12.999Z,44.63
2022-09-09T09:10:49.297Z,49.79
2022-09-09T09:13:43.515Z,46.05
2022-09-09T09:16:27.181Z,44.18
2022-09-09T09:18:54.930Z,43.30
2022-09-09T09:21:42.395Z,47.66
2022-09-09T09:24:21.465Z,46.01
2022-09-09T09:26:51.321Z,49.84
2022-09-09T09:29:25.711Z,45.60
2022-09-09T09:31:57.737Z,44.80
2022-09-09T09:34:27.538Z,43.97
2022-09-09T09:36:59.287Z,44.67
2022-09-09T09:42:24.057Z,51.80
2022-09-09T09:44:55.108Z,59.05
2022-09-09T09:47:29.326Z,68.61
2022-09-09T09:50:17.206Z,66.61
2022-09-09T09:52:58.476Z,77.19
2022-09-09T09:55:30.995Z,88.19
2022-09-09T10:00:35.072Z,93.87
2022-09-09T10:03:24.187Z,94.92
2022-09-09T10:05:53.110Z,86.06
2022-09-09T10:08:23.577Z,91.58
2022-09-09T10:11:35.973Z,89.03
2022-09-09T10:14:20.791Z,88.89
2022-09-09T10:17:12.126Z,87.75
2022-09-09T10:19:50.047Z,86.23
2022-09-09T10:22:28.189Z,82.14
2022-09-09T10:25:31.037Z,81.97
2022-09-09T10:28:28.568Z,86.56
2022-09-09T10:31:15.823Z,90.57
2022-09-09T10:33:57.916Z,92.27
2022-09-09T10:36:26.945Z,93.77
2022-09-09T10:39:01.939Z,92.46
2022-09-09T10:41:52.217Z,86.97
2022-09-09T10:44:39.538Z,86.37
2022-09-09T10:47:36.811Z,77.73
2022-09-09T10:51:00.592Z,73.18
2022-09-09T10:53:43.149Z,76.31
2022-09-09T10:56:16.299Z,67.34
2022-09-09T10:58:51.348Z,64.78
2022-09-09T11:01:25.622Z,62.49
2022-09-09T11:04:00.419Z,58.61
2022-09-09T11:06:41.673Z,62.16
2022-09-09T11:09:22.318Z,62.58
2022-09-09T11:11:57.887Z,67.61
2022-09-09T11:14:46.860Z,67.65
2022-09-09T11:17:20.610Z,63.41
2022-09-09T11:19:48.466Z,58.52
2022-09-09T11:22:32.144Z,58.06
2022-09-09T11:25:08.624Z,56.87
2022-09-09T11:27:52.765Z,57.50
2022-09-09T11:30:44.577Z,53.31
2022-09-09T11:34:08.698Z,51.94
2022-09-09T11:37:17.999Z,50.45
2022-09-09T11:40:09.451Z,51.68
2022-09-09T11:42:37.599Z,50.77
2022-09-09T11:45:30.402Z,54.98
2022-09-09T11:48:01.661Z,55.05
2022-09-09T11:50:40.924Z,55.60
2022-09-09T11:53:23.310Z,54.05
2022-09-09T11:56:14.529Z,56.61
2022-09-09T11:59:01.348Z,58.36
2022-09-09T12:01:42.043Z,60.03
2022-09-09T12:04:31.813Z,60.73
2022-09-09T12:07:04.193Z,61.53
2022-09-09T12:09:46.462Z,63.62
2022-09-09T12:12:34.602Z,64.57
2022-09-09T12:15:23.722Z,68.33
2022-09-09T12:17:54.042Z,69.52
2022-09-09T12:20:27.835Z,67.12
2022-09-09T12:23:25.413Z,66.05
2022-09-09T12:26:22.795Z,64.29
2022-09-09T12:29:07.865Z,62.21
2022-09-09T12:31:46.040Z,60.61
2022-09-09T12:34:27.982Z,62.12
2022-09-09T12:37:03.181Z,61.84
2022-09-09T12:39:37.853Z,59.17
2022-09-09T12:42:05.595Z,59.16
2022-09-09T12:44:34.218Z,60.03
2022-09-09T12:47:04.840Z,59.44
2022-09-09T12:49:36.642Z,60.36
2022-09-09T12:52:09.798Z,59.12
2022-09-09T12:54:38.571Z,58.64
2022-09-09T12:57:12.061Z,60.91
2022-09-09T12:59:44.999Z,57.14
2022-09-09T13:02:21.785Z,55.88
2022-09-09T13:04:49.989Z,55.57
2022-09-09T13:07:17.697Z,53.80
2022-09-09T13:09:46.150Z,54.34
2022-09-09T13:12:19.361Z,54.20
2022-09-09T13:14:54.815Z,54.77
2022-09-09T13:17:25.621Z,54.09
2022-09-09T13:19:54.838Z,52.78
2022-09-09T13:22:32.145Z,54.04
2022-09-09T13:25:20.176Z,54.65
2022-09-09T13:27:56.852Z,54.73
2022-09-09T13:30:29.548Z,55.16
2022-09-09T13:33:21.007Z,53.67
2022-09-09T13:35:54.485Z,51.67
2022-09-09T13:38:27.024Z,52.42
2022-09-09T13:41:02.821Z,52.69
2022-09-09T13:43:39.196Z,53.16
2022-09-09T13:46:34.233Z,53.08
2022-09-09T13:49:24.259Z,52.87
2022-09-09T13:52:04.113Z,52.51
2022-09-09T13:54:31.695Z,52.62
2022-09-09T13:57:04.953Z,53.56
2022-09-09T14:02:22.548Z,53.73
2022-09-09T14:04:52.786Z,52.91
2022-09-09T14:07:21.100Z,53.46
2022-09-09T14:09:51.834Z,59.86
2022-09-09T14:12:25.439Z,64.78
2022-09-09T14:14:54.058Z,66.79
2022-09-09T14:17:22.556Z,63.85
2022-09-09T14:19:53.625Z,65.69
2022-09-09T14:22:21.410Z,62.49
2022-09-09T14:24:48.506Z,65.25
2022-09-09T14:27:18.581Z,58.54
2022-09-09T14:29:45.888Z,56.48
2022-09-09T14:32:13.047Z,57.85
2022-09-09T14:34:41.434Z,55.21
2022-09-09T14:37:48.383Z,55.17
2022-09-09T14:40:46.686Z,54.62
2022-09-09T14:43:19.192Z,55.80
2022-09-09T14:45:46.443Z,54.95
2022-09-09T14:48:13.317Z,56.74
2022-09-09T14:50:46.085Z,54.27
2022-09-09T14:53:26.603Z,54.60
2022-09-09T14:55:54.095Z,56.51
2022-09-09T14:58:21.225Z,55.94
2022-09-09T15:00:48.941Z,54.97
2022-09-09T15:03:15.824Z,55.33
2022-09-09T15:05:44.710Z,55.19
2022-09-09T15:08:11.956Z,57.25
2022-09-09T15:10:41.944Z,62.60
2022-09-09T15:13:11.547Z,70.49
2022-09-09T15:15:44.238Z,69.85
2022-09-09T16:36:44.186Z,65.34
2022-09-09T16:39:14.545Z,63.83
2022-09-09T16:41:43.794Z,66.18
2022-09-09T16:44:14.958Z,68.47
2022-09-09T16:46:44.307Z,70.95
2022-09-09T16:49:14.606Z,71.95
2022-09-09T16:51:44.711Z,72.54
2022-09-09T16:54:16.117Z,73.11
2022-09-09T16:56:46.319Z,75.52
2022-09-09T16:59:16.668Z,75.71
2022-09-09T17:01:47.053Z,76.33
2022-09-09T17:04:19.326Z,79.09
2022-09-09T17:06:48.277Z,79.96
2022-09-09T17:09:15.885Z,79.42
2022-09-09T17:11:51.351Z,79.46
2022-09-09T17:14:20.920Z,78.15
2022-09-09T17:55:53.108Z,78.99
2022-09-09T17:58:20.648Z,75.93
2022-09-09T18:00:47.760Z,75.89
2022-09-09T18:03:19.739Z,74.73
2022-09-09T18:05:46.846Z,75.01
2022-09-09T18:08:13.719Z,74.95
2022-09-09T18:10:40.771Z,74.29
2022-09-09T18:13:08.991Z,75.19
2022-09-09T18:15:49.256Z,73.34
2022-09-09T18:18:16.912Z,74.86
2022-09-09T18:20:47.305Z,73.97
2022-09-09T18:23:15.151Z,73.60
2022-09-09T18:25:42.962Z,74.45
2022-09-09T18:28:12.389Z,74.19
2022-09-09T18:30:40.358Z,74.41
2022-09-09T18:33:09.531Z,75.39
2022-09-09T18:35:41.431Z,76.18
2022-09-09T18:38:10.716Z,76.25
2022-09-09T18:40:39.320Z,76.25
2022-09-09T18:43:17.105Z,75.64
2022-09-09T18:45:47.032Z,75.94
2022-09-09T18:48:19.054Z,77.25
2022-09-09T18:50:49.469Z,77.59
2022-09-09T18:53:16.474Z,80.96
2022-09-09T18:55:43.684Z,82.71
2022-09-09T18:58:12.409Z,83.10
2022-09-09T19:00:43.356Z,83.59
2022-09-09T19:03:22.946Z,84.24
2022-09-09T19:09:10.678Z,86.89
2022-09-09T19:11:39.133Z,87.39
2022-09-09T19:14:12.008Z,88.53
2022-09-09T19:16:40.051Z,89.42
2022-09-09T19:35:32.307Z,91.89
2022-09-09T19:42:09.490Z,90.91
2022-09-09T19:44:45.434Z,91.21
2022-09-09T19:47:12.836Z,90.04
2022-09-09T19:50:14.591Z,92.52
2022-09-09T19:52:54.528Z,92.26
2022-09-09T19:55:23.879Z,92.41
2022-09-09T19:57:59.805Z,92.16
2022-09-09T20:00:27.465Z,92.09
2022-09-09T20:03:18.064Z,92.91
2022-09-09T20:05:46.363Z,95.31
2022-09-09T20:08:14.937Z,96.33
2022-09-09T20:10:51.585Z,100.00
2022-09-09T20:13:18.946Z,96.18
2022-09-09T20:15:59.655Z,92.41
2022-09-09T20:18:28.822Z,91.01
2022-09-09T20:20:58.870Z,90.16
2022-09-09T20:23:28.316Z,90.12
2022-09-09T20:26:00.565Z,88.93
2022-09-09T20:28:27.617Z,87.76
2022-09-09T20:30:54.613Z,88.31
2022-09-09T20:33:21.585Z,88.41
2022-09-09T20:35:48.789Z,88.39
2022-09-09T20:38:15.672Z,88.14
2022-09-09T20:40:44.094Z,88.30
2022-09-09T20:43:11.877Z,90.46
2022-09-09T20:45:39.502Z,93.49
2022-09-09T20:48:06.658Z,93.69
2022-09-09T20:50:35.448Z,94.23
2022-09-09T20:53:02.394Z,94.25
2022-09-09T20:55:31.145Z,94.00
2022-09-09T20:58:00.552Z,95.47
2022-09-09T21:00:27.537Z,94.90
2022-09-09T21:02:54.341Z,94.46
2022-09-09T21:05:24.167Z,95.27
2022-09-09T21:07:51.668Z,95.09
2022-09-09T21:10:18.763Z,95.08
2022-09-09T21:12:45.727Z,96.94
2022-09-09T21:15:14.117Z,97.53
2022-09-09T21:17:40.953Z,97.31
2022-09-09T21:20:09.924Z,97.97
2022-09-09T21:22:37.099Z,97.71
2022-09-09T21:25:05.573Z,99.23
2022-09-09T21:27:32.527Z,99.61
2022-09-09T21:29:59.367Z,97.85
2022-09-09T21:32:27.535Z,97.92
2022-09-09T21:34:54.591Z,98.73
2022-09-09T21:37:46.494Z,98.81
2022-09-09T21:40:13.607Z,98.36
2022-09-09T21:42:44.289Z,98.04
2022-09-09T21:45:11.429Z,98.22
2022-09-09T21:47:39.859Z,97.55
2022-09-09T21:50:07.729Z,97.24
2022-09-09T21:52:34.946Z,97.00
2022-09-09T21:55:01.948Z,96.72
2022-09-09T21:57:28.800Z,96.45
2022-09-09T21:59:57.787Z,95.75
2022-09-09T22:02:24.842Z,95.34
2022-09-09T22:04:53.249Z,95.20
2022-09-09T22:07:20.541Z,95.01
2022-09-09T22:09:47.475Z,95.52
2022-09-09T22:12:14.466Z,95.22
2022-09-09T22:14:41.396Z,95.46
2022-09-09T22:17:10.039Z,94.83
2022-09-09T22:19:39.059Z,94.48
2022-09-09T22:22:07.194Z,94.58
2022-09-09T22:24:34.431Z,94.07
2022-09-09T22:27:01.276Z,94.77
2022-09-09T22:29:28.028Z,96.44
2022-09-09T22:31:55.182Z,97.01
2022-09-09T22:34:22.398Z,96.43
2022-09-09T22:36:49.336Z,96.98
2022-09-09T22:39:17.596Z,100.00
2022-09-09T22:41:44.431Z,100.00
2022-09-09T22:44:11.292Z,100.00
2022-09-09T22:46:38.225Z,100.00
2022-09-09T22:49:05.402Z,100.00
2022-09-09T22:51:42.902Z,100.00
2022-09-09T22:54:10.019Z,100.00
2022-09-09T22:56:38.188Z,100.00
2022-09-09T22:59:05.618Z,100.00
2022-09-09T23:01:33.551Z,100.00
2022-09-09T23:04:00.489Z,100.00
2022-09-09T23:06:28.843Z,100.00
2022-09-09T23:09:01.160Z,100.00
2022-09-09T23:11:31.191Z,100.00
2022-09-09T23:14:02.781Z,100.00
2022-09-09T23:16:33.308Z,100.00
2022-09-09T23:19:01.175Z,100.00
2022-09-09T23:21:30.319Z,100.00
2022-09-09T23:23:59.601Z,100.00
2022-09-09T23:26:27.353Z,100.00
2022-09-09T23:28:57.158Z,100.00
2022-09-09T23:31:28.307Z,100.00
2022-09-09T23:33:55.548Z,100.00
2022-09-09T23:36:25.053Z,100.00
2022-09-09T23:38:53.292Z,100.00
2022-09-09T23:41:20.432Z,100.00
2022-09-09T23:43:47.633Z,100.00
2022-09-09T23:46:19.258Z,100.00
2022-09-09T23:48:48.530Z,100.00
2022-09-09T23:51:15.510Z,100.00
2022-09-09T23:53:42.749Z,100.00
2022-09-09T23:56:11.541Z,100.00
2022-09-09T23:58:41.136Z,100.00
